To NAV CANADA Home Page Login to a new session Search on AWWS site Feedback and Comments Disclaimer Vers la page française équivalente Tips FAQ What's new on the site To the Forecasts and Observations / NOTAM section To "File a Flight Plan" website Publications and other links Update of the User's profile FIC Telephone Numbers My Weather Data Folder Route Weather Data Regional Weather Data Local Weather Data To the Forecasts and Observations / NOTAM section
Request Generated 09/04/2015 at 20:58:44 UTC . Weather information available at that time is displayed.

METAR/TAF

HALIFAX/STANFIELD INTL/NS    

METAR CYHZ 042000Z 01012G18KT 15SM FEW035 18/10 A3016 RMK CU2 SLP213
DENSITY ALT 600FT=
METAR CYHZ 041900Z 36009G17KT 15SM FEW040 20/10 A3015 RMK CU2 SLP212
DENSITY ALT 800FT=
METAR CYHZ 041800Z 01012KT 15SM FEW040 20/09 A3015 RMK CU2 SLP211
DENSITY ALT 800FT=

TAF CYHZ 042038Z 0421/0518 36010G20KT P6SM SCT040
BECMG 0422/0424 01008KT SKC
FM050800 30008KT P6SM SKC
RMK NXT FCST BY 050000Z=
Your time UTC time
Weather data provided by Environment Canada and NAV CANADA